Time;durP1;ratioP1;P1;durP2;ratioP2;P2;SDS_P1;SDS_P2;PMS_P1;PMS_P2;Temp;Humidity;BMP_temperature;BMP_pressure;BME280_temperature;BME280_humidity;BME280_pressure;Samples;Min_cycle;Max_cycle;Signal;HPM_P1;HPM_P2
2022/10/31 04:48:37;;;;;;;12.45;5.65;;;;;;;14.95;57.78;101757.84;5066296;28;20417;-84
2022/10/31 04:51:03;;;;;;;8.45;4.57;;;;;;;15.18;57.10;101754.91;5067128;28;20486;-84
2022/10/31 04:53:28;;;;;;;16.58;7.05;;;;;;;16.34;53.82;101767.94;5032238;28;20494;-90
2022/10/31 04:55:54;;;;;;;21.33;8.23;;;;;;;16.95;51.31;101755.00;5048904;28;20033;-83
2022/10/31 04:58:19;;;;;;;25.05;8.02;;;;;;;17.34;50.48;101744.81;5048215;28;20048;-83
2022/10/31 05:00:45;;;;;;;21.42;9.02;;;;;;;17.87;48.91;101761.69;5065833;28;20541;-83
2022/10/31 05:03:10;;;;;;;18.73;9.30;;;;;;;18.06;48.08;101767.47;5049874;28;20025;-84
2022/10/31 05:05:36;;;;;;;13.35;7.78;;;;;;;17.71;49.00;101755.72;5049493;28;20055;-82
2022/10/31 05:08:01;;;;;;;16.15;7.78;;;;;;;17.23;49.83;101770.75;5049750;28;20501;-82
2022/10/31 05:10:29;;;;;;;29.52;8.13;;;;;;;16.86;50.90;101764.19;5049396;28;20064;-82
2022/10/31 05:12:55;;;;;;;28.95;7.78;;;;;;;16.25;51.89;101754.53;5049685;28;20036;-81
2022/10/31 05:15:22;;;;;;;27.65;13.38;;;;;;;16.08;52.98;101773.72;5049207;28;20027;-82
2022/10/31 05:17:47;;;;;;;18.85;8.60;;;;;;;15.77;53.81;101769.28;5048621;28;20025;-91
2022/10/31 05:20:13;;;;;;;21.83;8.23;;;;;;;15.61;54.14;101763.19;5032144;28;20032;-93
2022/10/31 05:22:49;;;;;;;12.20;7.32;;;;;;;15.58;55.54;101771.13;5032736;28;20032;-90
2022/10/31 05:25:16;;;;;;;17.08;6.40;;;;;;;15.54;55.57;101761.81;5049908;28;20510;-91
2022/10/31 05:27:42;;;;;;;14.43;6.95;;;;;;;15.69;55.07;101780.13;5031907;28;20417;-91
2022/10/31 05:30:08;;;;;;;17.13;6.65;;;;;;;15.50;56.33;101774.13;5031812;28;20094;-91
2022/10/31 05:32:41;;;;;;;12.27;7.00;;;;;;;15.42;56.00;101784.09;5047149;28;20033;-91
2022/10/31 05:35:10;;;;;;;11.27;7.13;;;;;;;15.20;56.53;101772.16;5049264;28;20021;-84
2022/10/31 05:37:36;;;;;;;16.88;7.47;;;;;;;15.24;57.50;101788.50;5047906;28;20560;-88
2022/10/31 05:40:05;;;;;;;18.35;6.85;;;;;;;15.13;57.09;101794.22;5030627;28;20111;-88
2022/10/31 05:42:31;;;;;;;17.40;6.90;;;;;;;14.94;56.98;101788.22;5048306;28;20082;-85
2022/10/31 05:44:56;;;;;;;12.15;6.75;;;;;;;14.80;57.56;101785.47;5047812;28;20468;-84
2022/10/31 05:47:22;;;;;;;20.70;7.50;;;;;;;14.88;58.53;101812.00;5048009;28;20045;-83
2022/10/31 05:49:47;;;;;;;19.52;8.07;;;;;;;14.88;58.55;101804.19;5064880;28;20031;-94
2022/10/31 05:52:13;;;;;;;22.88;8.52;;;;;;;14.80;58.10;101811.50;5033462;28;20052;-93
2022/10/31 05:54:39;;;;;;;16.95;8.60;;;;;;;14.72;58.71;101792.78;5029223;28;20109;-91
2022/10/31 05:57:04;;;;;;;16.50;7.57;;;;;;;14.74;58.23;101811.78;5030717;28;20070;-88
2022/10/31 05:59:30;;;;;;;23.13;7.90;;;;;;;14.66;58.80;101803.53;5037895;28;20100;-87
2022/10/31 06:01:55;;;;;;;14.95;6.80;;;;;;;14.83;61.14;101806.97;5034064;28;20616;-88
2022/10/31 06:04:21;;;;;;;13.75;6.72;;;;;;;14.90;59.68;101802.34;5033428;28;20064;-84
2022/10/31 06:06:46;;;;;;;14.25;7.85;;;;;;;14.82;59.21;101786.22;5054346;28;20036;-86
2022/10/31 06:09:12;;;;;;;16.85;7.03;;;;;;;15.76;57.92;101801.53;5054487;28;20497;-84
2022/10/31 06:11:37;;;;;;;16.77;8.05;;;;;;;16.46;56.37;101807.34;5053866;28;20025;-83
2022/10/31 06:14:03;;;;;;;13.07;7.50;;;;;;;16.96;55.27;101811.56;5054507;28;20473;-86
2022/10/31 06:16:29;;;;;;;19.08;9.52;;;;;;;17.35;53.52;101821.50;5037607;28;20028;-84
2022/10/31 06:18:54;;;;;;;21.02;11.25;;;;;;;16.98;53.76;101813.16;5059763;28;20033;-85
2022/10/31 06:21:20;;;;;;;20.80;12.07;;;;;;;16.78;54.48;101809.06;5060136;28;20047;-84
2022/10/31 06:23:45;;;;;;;26.38;11.65;;;;;;;16.64;54.81;101808.97;5049866;28;20032;-84
2022/10/31 06:26:11;;;;;;;32.10;11.93;;;;;;;16.52;54.78;101818.31;5052339;28;20071;-87
2022/10/31 06:28:36;;;;;;;27.17;11.50;;;;;;;16.43;54.96;101820.59;5057368;28;20081;-86
2022/10/31 06:31:02;;;;;;;64.80;26.70;;;;;;;16.30;55.63;101816.00;5018671;28;20025;-86
2022/10/31 06:33:27;;;;;;;105.05;39.33;;;;;;;16.10;56.38;101791.91;5031941;28;20032;-85
2022/10/31 06:35:53;;;;;;;42.70;20.00;;;;;;;16.28;55.71;101820.47;5053507;28;20051;-85
2022/10/31 06:38:18;;;;;;;30.20;15.60;;;;;;;16.40;55.87;101826.81;5030830;28;20432;-82
2022/10/31 06:40:44;;;;;;;37.38;17.00;;;;;;;16.43;55.26;101841.50;5052871;28;20028;-82
2022/10/31 06:43:11;;;;;;;51.25;23.88;;;;;;;16.33;55.53;101830.69;5053458;28;20031;-89
2022/10/31 06:45:36;;;;;;;22.02;10.57;;;;;;;16.30;55.20;101842.13;5068954;28;20486;-89
2022/10/31 06:48:02;;;;;;;35.95;11.65;;;;;;;16.37;55.49;101841.81;5035179;28;20061;-87
2022/10/31 06:50:28;;;;;;;17.67;8.60;;;;;;;16.49;56.97;101843.75;5022703;28;20036;-94
2022/10/31 06:52:54;;;;;;;30.38;6.95;;;;;;;16.34;60.01;101850.66;5053990;28;20547;-87
2022/10/31 06:55:23;;;;;;;19.63;7.50;;;;;;;16.26;61.32;101843.22;5024164;28;20037;-84
2022/10/31 06:57:55;;;;;;;13.25;6.40;;;;;;;16.19;61.28;101846.25;5049847;28;20039;-87
2022/10/31 07:00:21;;;;;;;14.07;7.13;;;;;;;16.51;61.18;101847.13;5053345;28;20029;-83
2022/10/31 07:03:03;;;;;;;18.73;7.68;;;;;;;16.56;60.51;101840.72;5039225;28;20031;-87
2022/10/31 07:05:29;;;;;;;16.25;6.88;;;;;;;16.69;60.62;101850.53;5035204;28;20450;-87
2022/10/31 07:07:55;;;;;;;27.05;9.77;;;;;;;16.68;59.12;101828.78;5033688;28;20131;-88
2022/10/31 07:10:21;;;;;;;16.55;8.43;;;;;;;16.86;57.59;101829.53;5048088;28;20033;-88
2022/10/31 07:12:47;;;;;;;23.60;8.57;;;;;;;16.94;57.36;101831.72;5068694;28;20063;-83
2022/10/31 07:15:12;;;;;;;17.23;7.38;;;;;;;17.10;54.82;101830.75;5056401;28;20057;-88
2022/10/31 07:17:38;;;;;;;16.33;7.53;;;;;;;17.18;54.83;101820.69;5033793;28;20516;-92
2022/10/31 07:20:04;;;;;;;14.68;7.55;;;;;;;17.51;54.88;101816.22;5034710;28;20032;-88
2022/10/31 07:22:36;;;;;;;24.95;10.73;;;;;;;18.30;54.83;101825.34;5020991;28;20580;-90
2022/10/31 07:25:02;;;;;;;15.13;7.85;;;;;;;18.50;53.35;101829.34;5053249;28;20089;-88
2022/10/31 07:27:27;;;;;;;16.05;6.38;;;;;;;18.54;49.22;101820.31;5024461;28;20516;-86
2022/10/31 07:29:53;;;;;;;19.55;7.00;;;;;;;18.36;51.84;101821.47;5029661;28;20037;-91
2022/10/31 07:32:18;;;;;;;17.38;7.65;;;;;;;18.26;52.52;101825.63;5019917;28;20036;-96
2022/10/31 07:34:44;;;;;;;20.67;7.25;;;;;;;18.24;53.95;101828.34;5037993;28;20486;-95
2022/10/31 07:37:09;;;;;;;27.90;9.07;;;;;;;18.24;53.90;101824.88;5028557;28;20127;-92
2022/10/31 07:39:35;;;;;;;19.27;7.93;;;;;;;18.41;53.67;101819.44;5031027;28;20021;-90
2022/10/31 07:42:00;;;;;;;14.85;5.88;;;;;;;18.67;49.51;101825.66;5041028;28;20033;-83
2022/10/31 07:44:26;;;;;;;23.08;9.00;;;;;;;18.83;50.13;101815.03;5035025;28;20059;-89
2022/10/31 07:46:51;;;;;;;15.50;7.70;;;;;;;19.02;49.67;101812.91;5052523;28;20048;-88
2022/10/31 07:49:17;;;;;;;15.82;6.97;;;;;;;19.16;49.29;101819.84;5040609;28;20509;-90
2022/10/31 07:51:42;;;;;;;24.52;10.70;;;;;;;19.26;50.25;101822.69;5018095;28;20047;-95
2022/10/31 07:54:08;;;;;;;21.20;9.30;;;;;;;19.43;50.73;101801.44;5019862;28;20102;-91
2022/10/31 07:56:33;;;;;;;25.63;9.48;;;;;;;19.60;50.47;101821.31;5033200;28;20403;-90
2022/10/31 07:58:59;;;;;;;18.15;6.65;;;;;;;19.71;47.35;101821.44;5041429;28;20035;-89
2022/10/31 08:01:24;;;;;;;13.82;7.43;;;;;;;19.92;49.17;101816.47;5069822;28;20543;-89
2022/10/31 08:03:50;;;;;;;15.57;7.60;;;;;;;20.20;48.68;101821.50;5036807;28;20032;-86
2022/10/31 08:06:15;;;;;;;15.65;6.97;;;;;;;20.41;47.44;101823.53;5035387;28;20032;-92
2022/10/31 08:08:41;;;;;;;14.77;6.25;;;;;;;20.46;44.69;101800.44;5044791;28;20082;-84
2022/10/31 08:11:06;;;;;;;12.88;6.72;;;;;;;20.78;46.18;101824.41;5052188;28;20020;-82
2022/10/31 08:13:32;;;;;;;13.68;6.43;;;;;;;20.70;47.00;101811.78;5059999;28;20037;-84
2022/10/31 08:16:03;;;;;;;18.25;6.45;;;;;;;20.87;46.91;101826.34;5040068;28;20508;-95
2022/10/31 08:18:29;;;;;;;12.85;6.38;;;;;;;20.82;44.29;101817.94;5022110;28;20489;-85
2022/10/31 08:20:54;;;;;;;14.32;6.47;;;;;;;20.90;46.22;101816.44;5028233;28;20087;-87
2022/10/31 08:23:20;;;;;;;17.02;6.53;;;;;;;21.19;44.06;101824.78;5060391;28;20028;-93
2022/10/31 08:25:47;;;;;;;11.93;5.47;;;;;;;21.27;44.53;101813.72;5068553;28;20411;-90
2022/10/31 08:28:13;;;;;;;12.75;6.60;;;;;;;21.47;43.07;101820.97;5034736;28;20032;-88
2022/10/31 08:30:38;;;;;;;13.25;6.30;;;;;;;21.64;42.47;101818.84;5047480;28;20024;-84
2022/10/31 08:33:11;;;;;;;14.63;6.43;;;;;;;21.68;41.98;101802.69;5051813;28;20115;-88
2022/10/31 08:35:36;;;;;;;11.80;5.82;;;;;;;21.80;41.83;101798.25;5045190;28;20099;-94
2022/10/31 08:38:02;;;;;;;18.13;6.65;;;;;;;21.96;41.42;101804.00;5017014;28;20471;-88
2022/10/31 08:40:29;;;;;;;13.27;5.88;;;;;;;22.03;41.23;101799.94;5051403;28;20032;-94
2022/10/31 08:43:12;;;;;;;13.13;6.43;;;;;;;22.16;41.93;101801.63;5024733;28;20057;-93
2022/10/31 08:45:38;;;;;;;12.48;6.00;;;;;;;22.29;40.65;101804.97;5032018;28;20028;-85
2022/10/31 08:48:06;;;;;;;18.33;5.97;;;;;;;22.41;40.92;101806.59;5043440;28;20114;-94
2022/10/31 08:50:33;;;;;;;15.15;4.32;;;;;;;22.48;40.15;101791.97;5052041;28;20040;-94
2022/10/31 08:53:01;;;;;;;18.23;5.28;;;;;;;22.71;39.31;101807.72;5035782;28;20033;-92
2022/10/31 08:55:26;;;;;;;13.00;6.50;;;;;;;22.79;40.26;101805.31;5031151;28;20055;-85
2022/10/31 08:57:57;;;;;;;13.95;6.10;;;;;;;22.87;39.31;101809.03;5051736;28;20434;-93
2022/10/31 09:00:23;;;;;;;8.93;4.97;;;;;;;22.99;39.38;101807.16;5051584;28;20024;-84
2022/10/31 09:02:55;;;;;;;12.35;5.30;;;;;;;23.03;38.93;101808.59;5042300;28;20795;-84
2022/10/31 09:05:21;;;;;;;11.10;5.68;;;;;;;23.10;39.22;101803.63;5051271;28;20098;-83
2022/10/31 09:07:46;;;;;;;10.77;5.40;;;;;;;23.12;38.35;101788.53;5051637;28;20028;-91
2022/10/31 09:10:12;;;;;;;14.23;5.95;;;;;;;23.37;38.71;101805.78;5034915;28;20492;-85
2022/10/31 09:12:37;;;;;;;13.32;5.65;;;;;;;23.39;38.60;101804.66;5051304;28;20028;-90
2022/10/31 09:15:06;;;;;;;11.07;4.57;;;;;;;23.56;38.30;101799.78;5049105;28;20044;-92
2022/10/31 09:17:31;;;;;;;9.45;4.47;;;;;;;23.59;37.27;101800.38;5032676;28;20040;-90
2022/10/31 09:19:57;;;;;;;10.25;4.65;;;;;;;23.62;37.21;101788.72;5035722;28;20021;-87
2022/10/31 09:22:22;;;;;;;9.25;5.05;;;;;;;23.78;37.76;101799.63;5036304;28;20032;-88
2022/10/31 09:24:48;;;;;;;11.63;5.18;;;;;;;23.81;37.68;101783.53;5050820;28;20021;-86
2022/10/31 09:27:13;;;;;;;11.10;5.28;;;;;;;23.98;37.81;101800.53;5023157;28;20078;-92
2022/10/31 09:29:39;;;;;;;12.25;5.75;;;;;;;23.99;38.18;101803.06;5042078;28;20029;-94
2022/10/31 09:32:04;;;;;;;11.82;5.32;;;;;;;24.04;37.17;101790.28;5033474;28;20549;-92
2022/10/31 09:34:30;;;;;;;9.88;5.07;;;;;;;24.05;37.31;101796.41;5035985;28;20029;-90
2022/10/31 09:36:55;;;;;;;13.65;4.65;;;;;;;24.23;37.16;101805.38;5038627;28;20036;-93
2022/10/31 09:39:21;;;;;;;9.95;5.00;;;;;;;24.30;36.84;101810.97;5055153;28;20028;-90
2022/10/31 09:42:02;;;;;;;12.25;5.53;;;;;;;24.36;37.20;101809.59;5038796;28;20401;-92
2022/10/31 09:44:37;;;;;;;11.80;4.55;;;;;;;24.42;36.07;101807.25;5063007;28;20037;-91
2022/10/31 09:47:12;;;;;;;9.88;5.43;;;;;;;24.52;36.54;101804.63;5071288;28;20108;-93
2022/10/31 09:50:02;;;;;;;12.05;5.32;;;;;;;24.64;36.51;101800.03;5065533;28;20044;-90
2022/10/31 09:52:35;;;;;;;11.57;5.60;;;;;;;24.63;36.34;101793.91;5042741;28;20024;-94
2022/10/31 09:55:09;;;;;;;12.98;5.15;;;;;;;24.73;36.23;101797.41;5026531;28;20061;-90
2022/10/31 09:57:35;;;;;;;15.05;5.80;;;;;;;24.67;36.21;101766.19;5049479;28;20035;-87
2022/10/31 10:00:05;;;;;;;19.63;8.45;;;;;;;24.89;36.38;101775.69;5052986;28;20031;-95
2022/10/31 10:02:53;;;;;;;17.15;7.25;;;;;;;25.00;36.22;101780.81;5037818;28;20529;-82
2022/10/31 10:05:23;;;;;;;18.95;7.88;;;;;;;25.09;35.02;101787.94;5054313;28;20032;-95
2022/10/31 10:08:13;;;;;;;10.45;4.93;;;;;;;25.04;35.59;101757.56;5038439;28;20063;-82
2022/10/31 10:10:49;;;;;;;17.95;4.90;;;;;;;25.16;35.40;101778.44;5056168;28;20021;-90
2022/10/31 10:13:33;;;;;;;15.38;7.03;;;;;;;25.21;34.64;101779.84;5048680;28;20025;-91
2022/10/31 10:16:17;;;;;;;18.73;5.50;;;;;;;25.37;34.68;101774.78;5050047;28;20025;-88
2022/10/31 10:18:51;;;;;;;7.30;3.90;;;;;;;25.32;34.14;101753.19;5047740;28;20402;-85
2022/10/31 10:21:30;;;;;;;11.95;4.38;;;;;;;25.49;34.09;101751.63;5053862;28;20055;-84
2022/10/31 10:24:20;;;;;;;14.40;5.60;;;;;;;25.70;33.68;101763.69;5067441;28;20473;-89
2022/10/31 10:27:00;;;;;;;15.10;6.47;;;;;;;25.74;33.49;101740.38;5064784;28;20166;-88
2022/10/31 10:30:02;;;;;;;6.60;3.88;;;;;;;25.88;32.72;101747.84;5047910;28;20483;-87
2022/10/31 10:32:29;;;;;;;9.00;4.30;;;;;;;26.04;32.80;101749.84;5020073;28;20577;-86
2022/10/31 10:35:07;;;;;;;10.18;3.97;;;;;;;26.06;32.85;101744.41;5053972;28;20028;-82
2022/10/31 10:37:38;;;;;;;11.93;5.10;;;;;;;26.10;32.97;101745.75;5052552;28;20078;-82
2022/10/31 10:40:24;;;;;;;12.90;4.67;;;;;;;26.17;32.13;101746.84;5049786;28;20074;-83
2022/10/31 10:48:34;;;;;;;14.43;4.18;;;;;;;26.28;31.88;101733.38;5058609;28;20505;-87
2022/10/31 10:51:00;;;;;;;12.02;5.20;;;;;;;26.31;32.20;101733.06;5035286;28;20029;-90
2022/10/31 10:53:32;;;;;;;11.65;5.05;;;;;;;26.46;31.75;101742.19;5029469;28;20035;-85
2022/10/31 10:56:26;;;;;;;11.93;5.05;;;;;;;26.48;31.90;101739.38;5056288;28;20557;-92
2022/10/31 10:58:54;;;;;;;10.95;4.72;;;;;;;26.50;31.72;101738.25;5046901;28;20033;-95
2022/10/31 11:01:19;;;;;;;9.32;4.60;;;;;;;26.67;31.61;101738.41;5044482;28;20120;-92
2022/10/31 11:03:45;;;;;;;9.98;4.85;;;;;;;26.76;31.63;101738.31;5045916;28;20032;-90
2022/10/31 11:06:25;;;;;;;13.93;6.20;;;;;;;26.81;31.14;101732.53;5035596;28;20036;-82
2022/10/31 11:08:50;;;;;;;61.97;20.65;;;;;;;26.92;31.38;101740.22;5040596;28;20056;-89
2022/10/31 11:11:31;;;;;;;16.63;8.73;;;;;;;26.96;31.24;101744.25;5035574;28;20079;-91
2022/10/31 11:14:05;;;;;;;9.82;3.92;;;;;;;26.90;31.29;101728.13;5050259;28;20040;-88
2022/10/31 11:16:39;;;;;;;11.73;4.57;;;;;;;26.95;31.49;101731.16;5042245;28;20031;-86
2022/10/31 11:19:40;;;;;;;11.70;5.32;;;;;;;26.98;31.03;101714.91;5034633;28;20457;-88
2022/10/31 11:22:07;;;;;;;9.85;4.95;;;;;;;26.85;31.01;101710.00;5015506;28;20124;-86
2022/10/31 11:24:37;;;;;;;12.88;5.22;;;;;;;26.66;30.94;101683.66;5050043;28;20588;-87
2022/10/31 11:27:13;;;;;;;10.13;4.78;;;;;;;26.82;30.58;101718.25;5037065;28;20040;-91
2022/10/31 11:29:38;;;;;;;10.45;4.35;;;;;;;26.69;31.08;101709.88;5053948;28;20057;-83
2022/10/31 11:32:04;;;;;;;10.30;5.43;;;;;;;26.57;31.35;101686.22;5067091;28;20122;-83
2022/10/31 11:34:32;;;;;;;8.13;4.50;;;;;;;26.61;31.32;101701.84;5052717;28;20020;-85
2022/10/31 11:37:14;;;;;;;10.45;3.70;;;;;;;26.49;30.96;101688.81;5052296;28;20405;-86
2022/10/31 11:39:45;;;;;;;7.60;4.13;;;;;;;26.66;30.82;101702.22;5045359;28;20029;-90
2022/10/31 11:42:10;;;;;;;9.05;4.68;;;;;;;26.59;31.74;101694.88;5051085;28;20071;-85
2022/10/31 11:44:36;;;;;;;7.88;4.43;;;;;;;26.62;31.70;101700.84;5051604;28;20454;-86
2022/10/31 11:47:03;;;;;;;41.15;16.23;;;;;;;26.62;31.85;101692.88;5038771;28;20059;-85
2022/10/31 11:49:35;;;;;;;16.15;6.97;;;;;;;26.52;31.98;101677.88;5045399;28;20033;-85
2022/10/31 11:52:04;;;;;;;9.45;5.30;;;;;;;26.66;31.64;101694.25;5052953;28;20036;-85
2022/10/31 11:54:41;;;;;;;9.95;3.90;;;;;;;26.67;31.42;101685.31;5065801;28;20049;-86
2022/10/31 11:57:42;;;;;;;9.05;4.38;;;;;;;26.53;31.62;101668.09;5034367;28;20032;-90
2022/10/31 12:00:31;;;;;;;7.18;4.25;;;;;;;26.64;31.43;101686.44;5069734;28;20032;-87
2022/10/31 12:03:23;;;;;;;8.23;4.15;;;;;;;26.64;31.22;101674.97;5036574;28;20028;-86
2022/10/31 12:06:01;;;;;;;8.30;4.38;;;;;;;26.50;31.48;101653.31;5058437;28;20052;-84
2022/10/31 12:08:35;;;;;;;16.73;5.25;;;;;;;26.67;31.68;101680.84;5060383;28;20041;-88
2022/10/31 12:11:40;;;;;;;12.48;5.53;;;;;;;26.70;31.29;101669.06;5040093;28;20047;-85
2022/10/31 12:14:18;;;;;;;7.45;4.38;;;;;;;26.64;31.30;101669.66;5051563;28;20025;-84
2022/10/31 12:17:01;;;;;;;8.45;4.05;;;;;;;26.50;31.21;101648.03;5052358;28;20116;-88
2022/10/31 12:19:35;;;;;;;6.82;3.90;;;;;;;26.63;31.62;101671.50;5032331;28;20032;-81
2022/10/31 12:22:19;;;;;;;13.93;7.57;;;;;;;26.69;31.75;101672.72;5052874;28;20505;-88
2022/10/31 12:24:51;;;;;;;6.60;3.63;;;;;;;26.66;31.04;101654.44;5069679;28;20107;-88
2022/10/31 12:27:23;;;;;;;9.60;4.25;;;;;;;26.74;31.17;101665.09;5071640;28;20413;-88
2022/10/31 12:30:02;;;;;;;9.25;4.45;;;;;;;26.57;31.39;101654.38;5035267;28;20029;-82
2022/10/31 12:32:28;;;;;;;11.18;4.30;;;;;;;26.64;31.59;101657.22;5052932;28;20029;-85
2022/10/31 12:35:32;;;;;;;10.65;4.63;;;;;;;26.64;31.28;101664.38;5062063;28;20413;-85
2022/10/31 12:38:32;;;;;;;7.60;4.38;;;;;;;26.56;31.27;101663.34;5052360;28;20025;-84
2022/10/31 12:41:18;;;;;;;7.93;4.03;;;;;;;26.45;31.36;101644.16;5021040;28;20071;-90
2022/10/31 12:43:56;;;;;;;11.85;5.10;;;;;;;26.51;31.62;101657.66;5043234;28;20041;-85
2022/10/31 12:46:58;;;;;;;9.25;4.28;;;;;;;26.44;31.52;101642.50;5046711;28;20159;-92
2022/10/31 12:49:23;;;;;;;93.72;38.40;;;;;;;26.47;31.69;101648.34;5048030;28;20502;-83
2022/10/31 12:52:09;;;;;;;15.70;8.52;;;;;;;26.43;31.46;101646.97;5051032;28;20059;-83
2022/10/31 12:54:45;;;;;;;36.03;17.00;;;;;;;26.46;31.83;101643.19;5053265;28;20108;-83
2022/10/31 12:57:26;;;;;;;27.17;12.65;;;;;;;26.43;31.52;101646.13;5049836;28;20021;-85
2022/10/31 13:00:00;;;;;;;13.77;6.13;;;;;;;26.27;31.64;101630.91;5051520;28;20108;-85
2022/10/31 13:03:04;;;;;;;11.07;4.53;;;;;;;26.24;31.72;101610.78;5015414;28;20083;-87
2022/10/31 13:05:42;;;;;;;59.17;24.70;;;;;;;26.43;31.68;101640.81;5046824;28;20044;-88
2022/10/31 13:08:11;;;;;;;8.85;5.18;;;;;;;26.45;31.50;101633.53;5053679;28;20489;-88
2022/10/31 13:10:47;;;;;;;7.60;3.13;;;;;;;26.57;31.42;101646.44;5019461;28;21195;-89
2022/10/31 13:13:16;;;;;;;9.63;3.80;;;;;;;26.56;30.97;101639.47;4994720;28;20037;-85
2022/10/31 13:15:53;;;;;;;7.28;3.38;;;;;;;26.63;30.97;101641.47;4993110;28;20026;-84
2022/10/31 13:18:33;;;;;;;6.22;3.47;;;;;;;26.66;30.67;101630.56;4975176;28;20046;-86
2022/10/31 13:21:00;;;;;;;8.95;3.70;;;;;;;26.65;30.75;101635.03;4977811;28;20057;-84
2022/10/31 13:23:30;;;;;;;7.65;3.70;;;;;;;26.61;30.67;101630.19;4973492;28;20041;-88
2022/10/31 13:25:56;;;;;;;11.38;4.53;;;;;;;26.68;30.60;101641.84;4979034;28;20042;-83
2022/10/31 13:28:31;;;;;;;9.23;4.03;;;;;;;26.61;31.18;101640.78;4975737;28;20058;-83
2022/10/31 13:30:56;;;;;;;20.02;9.57;;;;;;;26.58;31.33;101626.84;4968352;28;20030;-87
2022/10/31 13:33:33;;;;;;;12.48;4.93;;;;;;;26.64;31.38;101632.53;4992666;28;20041;-85
2022/10/31 13:36:17;;;;;;;12.15;5.32;;;;;;;26.54;31.83;101633.44;4977096;28;20563;-83
2022/10/31 13:38:47;;;;;;;8.77;4.65;;;;;;;26.44;31.35;101630.06;4976758;28;20583;-85
2022/10/31 13:41:31;;;;;;;11.70;4.40;;;;;;;26.30;31.65;101604.88;4975544;28;20030;-86
2022/10/31 13:44:24;;;;;;;8.13;3.85;;;;;;;26.33;32.05;101614.34;4993837;28;20061;-80
2022/10/31 13:46:50;;;;;;;12.23;4.50;;;;;;;26.36;32.01;101619.38;4977336;28;20081;-82
2022/10/31 13:49:28;;;;;;;14.40;4.35;;;;;;;26.34;31.91;101628.44;4976130;28;20066;-82
2022/10/31 13:52:12;;;;;;;10.05;4.82;;;;;;;26.29;32.13;101631.56;4993716;28;20050;-83
2022/10/31 13:54:39;;;;;;;10.88;4.82;;;;;;;26.06;32.08;101590.59;4986724;28;20030;-87
2022/10/31 13:57:17;;;;;;;9.32;4.60;;;;;;;26.27;32.13;101634.38;4974382;28;20070;-87
2022/10/31 13:59:56;;;;;;;7.95;4.03;;;;;;;26.41;31.93;101637.50;4975249;28;20088;-85
2022/10/31 14:02:27;;;;;;;6.93;3.83;;;;;;;26.37;31.74;101628.16;4958037;28;20114;-84
2022/10/31 14:05:06;;;;;;;12.18;5.18;;;;;;;26.30;32.27;101610.19;4974151;28;20026;-85
2022/10/31 14:07:31;;;;;;;11.65;5.65;;;;;;;26.42;32.17;101621.41;4957372;28;20034;-84
2022/10/31 14:10:25;;;;;;;11.13;5.18;;;;;;;26.45;32.57;101618.47;5007833;28;20511;-84
2022/10/31 14:12:51;;;;;;;8.25;4.57;;;;;;;26.52;32.26;101634.59;4991696;28;20033;-86
2022/10/31 14:15:19;;;;;;;8.73;4.40;;;;;;;26.81;31.94;101631.66;5007192;28;20022;-92
2022/10/31 14:18:06;;;;;;;12.02;4.15;;;;;;;27.19;31.03;101632.22;4987968;28;20023;-93
2022/10/31 14:20:39;;;;;;;12.30;4.93;;;;;;;27.05;31.50;101631.81;4989038;28;20487;-81
2022/10/31 14:23:26;;;;;;;9.38;4.20;;;;;;;26.88;31.19;101638.00;4973210;28;20066;-88
2022/10/31 14:25:52;;;;;;;12.82;4.30;;;;;;;26.46;31.37;101593.63;4990669;28;20033;-89
2022/10/31 14:28:31;;;;;;;15.98;5.47;;;;;;;26.46;31.94;101629.94;4976252;28;20054;-85
2022/10/31 14:30:57;;;;;;;13.63;4.93;;;;;;;26.38;32.09;101617.44;5006308;28;20034;-85
2022/10/31 14:33:27;;;;;;;11.57;5.50;;;;;;;26.33;32.53;101619.66;5011805;28;20112;-84
2022/10/31 14:36:00;;;;;;;10.32;5.18;;;;;;;26.31;33.30;101626.94;5011719;28;20030;-81
2022/10/31 14:38:37;;;;;;;9.90;4.63;;;;;;;26.21;33.28;101636.81;4994523;28;20763;-85
2022/10/31 14:41:25;;;;;;;11.48;4.75;;;;;;;25.95;35.95;101637.56;5027548;28;20030;-84
2022/10/31 14:44:10;;;;;;;12.18;5.75;;;;;;;25.74;35.94;101644.94;5003841;28;20389;-84
2022/10/31 14:47:19;;;;;;;10.70;5.53;;;;;;;25.52;36.01;101634.75;4992596;28;20057;-84
2022/10/31 14:49:45;;;;;;;11.70;5.13;;;;;;;25.33;36.71;101641.78;4990101;28;20039;-84
2022/10/31 14:52:12;;;;;;;17.20;8.40;;;;;;;25.07;37.60;101625.75;4999638;28;20022;-93
2022/10/31 14:54:41;;;;;;;21.52;8.07;;;;;;;24.98;37.98;101644.28;4989667;28;20041;-90
2022/10/31 14:57:15;;;;;;;20.20;9.63;;;;;;;24.92;38.87;101637.75;4976142;28;20030;-90
2022/10/31 14:59:45;;;;;;;11.77;5.75;;;;;;;24.70;37.56;101638.91;4970318;28;20411;-83
2022/10/31 15:02:36;;;;;;;19.35;9.85;;;;;;;24.59;38.76;101652.31;4989342;28;20495;-85
2022/10/31 15:05:12;;;;;;;16.25;7.00;;;;;;;24.35;39.73;101634.22;4989496;28;20069;-87
2022/10/31 15:07:49;;;;;;;13.45;7.30;;;;;;;24.22;40.64;101639.75;4959966;28;20422;-88
2022/10/31 15:10:34;;;;;;;14.82;8.02;;;;;;;24.15;40.74;101648.38;4975120;28;20022;-89
2022/10/31 15:13:10;;;;;;;13.38;6.85;;;;;;;23.96;41.44;101651.84;4975358;28;20113;-85
2022/10/31 15:15:36;;;;;;;17.08;7.20;;;;;;;23.67;41.99;101634.13;4991328;28;20034;-83
2022/10/31 15:18:03;;;;;;;13.30;6.70;;;;;;;23.74;41.83;101656.41;5005234;28;20018;-87
2022/10/31 15:20:30;;;;;;;18.42;6.72;;;;;;;23.53;43.35;101645.06;4987890;28;20035;-87
